Great Valley, New York
Current Conditions -  °F | °C
As of 4:35 AM on Tuesday 21 Oct 2014 (Local Time) from KOLE Reporting Station
Drizzle Drizzle  
Wind Chill: 41°   Ceiling: 300
Heat Index: 45°   Visibility: 0.5mi
Dew Point: 45°   Wind: 6mph
Humidity: 100%   Direction: 210°SSW
Pressure: 29.78"   Gusts: NA
Location:  42.21°N, 78.64°W
Report Text: KOLE 210835Z AUTO 21005KT 1/2SM -DZ OVC003 07/07 A2978 RMK AO2
Loading
Personal Weather Stations






























Interactive Weather Map New forecast layout! Learn more

10-Day Weather Forecast

Advertisements
Track Severe Weather on mobile